Time;durP1;ratioP1;P1;durP2;ratioP2;P2;SDS_P1;SDS_P2;PMS_P1;PMS_P2;Temp;Humidity;BMP_temperature;BMP_pressure;BME280_temperature;BME280_humidity;BME280_pressure;Samples;Min_cycle;Max_cycle;Signal;HPM_P1;HPM_P2
2023/04/01 00:01:26;;;;;;;2.50;1.63;;;10.40;99.90;;;;;;5005415;28;20057;-83
2023/04/01 00:03:51;;;;;;;3.40;1.85;;;10.40;99.90;;;;;;5004339;28;20310;-81
2023/04/01 00:06:18;;;;;;;1.95;1.50;;;10.40;99.90;;;;;;5005230;28;20046;-83
2023/04/01 00:08:44;;;;;;;2.42;1.60;;;10.40;99.90;;;;;;5005139;28;20085;-83
2023/04/01 00:11:10;;;;;;;2.17;1.30;;;10.40;99.90;;;;;;5004314;28;20432;-78
2023/04/01 00:13:36;;;;;;;4.30;1.67;;;10.40;99.90;;;;;;5003949;28;20060;-83
2023/04/01 00:16:02;;;;;;;2.80;1.77;;;10.40;99.90;;;;;;5005046;28;20053;-81
2023/04/01 00:18:28;;;;;;;3.58;2.17;;;10.40;99.90;;;;;;5004668;28;20466;-81
2023/04/01 00:20:54;;;;;;;3.65;1.95;;;10.40;99.90;;;;;;5003945;28;20045;-83
2023/04/01 00:23:20;;;;;;;2.72;2.53;;;10.30;99.90;;;;;;5003513;28;20050;-80
2023/04/01 00:25:47;;;;;;;3.42;2.00;;;10.30;99.90;;;;;;5004256;28;20042;-83
2023/04/01 00:28:14;;;;;;;3.25;1.92;;;10.40;99.90;;;;;;5004225;28;20042;-82
2023/04/01 00:30:40;;;;;;;2.20;1.27;;;10.30;99.90;;;;;;5004714;28;20045;-81
2023/04/01 00:33:06;;;;;;;4.30;2.13;;;10.30;99.90;;;;;;5004939;28;20065;-83
2023/04/01 00:35:32;;;;;;;2.88;2.10;;;10.40;99.90;;;;;;5003736;28;20042;-81
2023/04/01 00:37:58;;;;;;;2.60;1.67;;;10.30;99.90;;;;;;5005893;28;20069;-83
2023/04/01 00:40:36;;;;;;;2.22;1.75;;;10.30;99.90;;;;;;5003725;28;20065;-83
2023/04/01 00:43:02;;;;;;;4.75;1.77;;;10.30;99.90;;;;;;5004650;28;20041;-83
2023/04/01 00:45:32;;;;;;;3.03;2.05;;;10.30;99.90;;;;;;5003798;28;20045;-81
2023/04/01 00:48:04;;;;;;;2.08;1.92;;;10.30;99.90;;;;;;4990271;28;20122;-82
2023/04/01 00:50:30;;;;;;;2.63;2.38;;;10.30;99.90;;;;;;4983753;28;20109;-81
2023/04/01 00:52:57;;;;;;;3.90;1.88;;;10.30;99.90;;;;;;4985282;28;20043;-78
2023/04/01 00:55:24;;;;;;;2.60;2.00;;;10.30;99.90;;;;;;4985074;28;20121;-83
2023/04/01 00:57:53;;;;;;;5.05;2.03;;;10.30;99.90;;;;;;5004790;28;20139;-81
2023/04/01 01:00:18;;;;;;;3.67;1.92;;;10.30;99.90;;;;;;5002923;28;20046;-80
2023/04/01 01:02:46;;;;;;;1.77;1.63;;;10.30;99.90;;;;;;5004600;28;20488;-83
2023/04/01 01:05:14;;;;;;;3.70;2.22;;;10.20;99.90;;;;;;5085919;23;20060;-82
2023/04/01 01:08:01;;;;;;;3.60;2.33;;;10.20;99.90;;;;;;5063991;28;20044;-81
2023/04/01 01:10:33;;;;;;;3.55;1.65;;;10.20;99.90;;;;;;5063452;28;20044;-79
2023/04/01 01:13:17;;;;;;;2.75;1.60;;;10.20;99.90;;;;;;5064437;28;20505;-80
2023/04/01 01:16:09;;;;;;;3.85;2.65;;;10.20;99.90;;;;;;5046174;28;20048;-82
2023/04/01 01:18:46;;;;;;;;;;;10.20;99.90;;;;;;5046538;28;20127;-80
2023/04/01 01:21:23;;;;;;;3.13;2.25;;;10.20;99.90;;;;;;5045616;28;20676;-83
2023/04/01 01:24:17;;;;;;;2.60;1.58;;;10.20;99.90;;;;;;5046561;28;20040;-83
2023/04/01 01:27:10;;;;;;;3.40;1.83;;;10.20;99.90;;;;;;5062737;28;20083;-80
2023/04/01 01:29:54;;;;;;;2.53;1.88;;;10.10;99.90;;;;;;5046125;28;20048;-83
2023/04/01 01:32:46;;;;;;;2.40;1.85;;;10.10;99.90;;;;;;5045655;28;20131;-82
2023/04/01 01:35:11;;;;;;;3.08;1.70;;;10.10;99.90;;;;;;5041635;28;20060;-83
2023/04/01 01:37:39;;;;;;;1.90;1.45;;;10.10;99.90;;;;;;5063957;28;20458;-81
2023/04/01 01:40:08;;;;;;;2.95;1.60;;;10.10;99.90;;;;;;5063531;28;20045;-80
2023/04/01 01:42:37;;;;;;;3.08;2.83;;;10.10;99.90;;;;;;5050106;28;20501;-79
2023/04/01 01:45:05;;;;;;;4.30;2.60;;;10.10;99.90;;;;;;5067355;28;20595;-82
2023/04/01 01:47:33;;;;;;;4.72;2.15;;;10.10;99.90;;;;;;5067193;28;20223;-83
2023/04/01 01:50:01;;;;;;;3.15;2.33;;;10.20;99.90;;;;;;5068004;28;20040;-81
2023/04/01 01:52:30;;;;;;;3.20;2.45;;;10.10;99.90;;;;;;5050335;28;20041;-83
2023/04/01 01:54:58;;;;;;;3.03;2.05;;;10.10;99.90;;;;;;5066493;28;20036;-82
2023/04/01 01:57:31;;;;;;;3.83;2.35;;;10.20;99.90;;;;;;5049129;28;20041;-78
2023/04/01 02:00:01;;;;;;;3.55;2.50;;;10.10;99.90;;;;;;5067718;28;20048;-83
2023/04/01 02:02:31;;;;;;;2.63;2.28;;;10.10;99.90;;;;;;5067363;28;20086;-82
2023/04/01 02:04:57;;;;;;;3.45;2.50;;;10.10;99.90;;;;;;5067488;28;20080;-80
2023/04/01 02:07:31;;;;;;;4.32;2.17;;;10.10;99.90;;;;;;5067483;28;20049;-81
2023/04/01 02:09:57;;;;;;;3.05;2.38;;;10.10;99.90;;;;;;5066989;28;20448;-83
2023/04/01 02:12:24;;;;;;;3.15;2.22;;;10.10;99.90;;;;;;5066879;28;20045;-83
2023/04/01 02:14:59;;;;;;;3.55;2.20;;;10.10;99.90;;;;;;5067054;28;20041;-80
2023/04/01 02:17:29;;;;;;;3.45;2.00;;;10.10;99.90;;;;;;5067502;28;20040;-80
2023/04/01 02:20:16;;;;;;;4.40;2.10;;;10.10;99.90;;;;;;5067234;28;20041;-79
2023/04/01 02:22:47;;;;;;;2.65;2.03;;;10.10;99.90;;;;;;5066903;28;20090;-80
2023/04/01 02:25:17;;;;;;;2.20;1.73;;;10.10;99.90;;;;;;5047426;28;20488;-80
2023/04/01 02:27:45;;;;;;;3.03;2.45;;;10.10;99.90;;;;;;5066906;28;20045;-82
2023/04/01 02:30:13;;;;;;;2.65;2.13;;;10.20;99.90;;;;;;5048727;28;20127;-82
2023/04/01 02:32:39;;;;;;;4.43;3.63;;;10.10;99.90;;;;;;5067083;28;20458;-83
2023/04/01 02:35:08;;;;;;;3.63;2.95;;;10.10;99.90;;;;;;5066210;28;20041;-80
2023/04/01 02:37:34;;;;;;;5.25;2.42;;;10.10;99.90;;;;;;5066947;28;20048;-81
2023/04/01 02:40:08;;;;;;;3.13;2.45;;;10.10;99.90;;;;;;5065530;28;20398;-80
2023/04/01 02:42:34;;;;;;;2.85;1.80;;;10.10;99.90;;;;;;5066478;28;20611;-83
2023/04/01 02:45:00;;;;;;;3.88;2.83;;;10.10;99.90;;;;;;5066174;28;20538;-81
2023/04/01 02:47:26;;;;;;;3.72;2.03;;;10.10;99.90;;;;;;5040526;28;20060;-78
2023/04/01 02:49:57;;;;;;;4.00;2.55;;;10.10;99.90;;;;;;5028233;28;20041;-83
2023/04/01 02:52:26;;;;;;;5.68;2.38;;;10.10;99.90;;;;;;5034676;28;20430;-83
2023/04/01 02:54:52;;;;;;;2.67;2.22;;;10.10;99.90;;;;;;5065370;28;20091;-79
2023/04/01 02:57:18;;;;;;;3.42;2.08;;;10.10;99.90;;;;;;5066064;28;20494;-83
2023/04/01 02:59:44;;;;;;;5.22;2.58;;;10.20;99.90;;;;;;5048586;28;20041;-83
2023/04/01 03:02:09;;;;;;;3.65;3.35;;;10.10;99.90;;;;;;5048485;28;20055;-82
2023/04/01 03:04:35;;;;;;;5.55;3.75;;;10.10;99.90;;;;;;5066108;28;20560;-84
2023/04/01 03:07:01;;;;;;;3.42;2.20;;;10.10;99.90;;;;;;5048168;28;20048;-81
2023/04/01 03:09:28;;;;;;;4.20;3.15;;;10.10;99.90;;;;;;5047992;28;20036;-83
2023/04/01 03:11:54;;;;;;;2.42;2.22;;;10.10;99.90;;;;;;5065971;28;20080;-80
2023/04/01 03:14:20;;;;;;;5.50;3.10;;;10.10;99.90;;;;;;5066213;28;20088;-80
2023/04/01 03:16:45;;;;;;;2.88;2.13;;;10.10;99.90;;;;;;5048422;28;20075;-83
2023/04/01 03:19:11;;;;;;;3.05;2.25;;;10.10;99.90;;;;;;5047753;28;20672;-78
2023/04/01 03:21:36;;;;;;;3.20;2.20;;;10.10;99.90;;;;;;5066103;28;20045;-84
2023/04/01 03:24:02;;;;;;;5.22;2.47;;;10.10;99.90;;;;;;5065524;28;20123;-82
2023/04/01 03:26:28;;;;;;;5.78;3.15;;;10.10;99.90;;;;;;5065225;28;20048;-82
2023/04/01 03:28:54;;;;;;;4.55;2.50;;;10.10;99.90;;;;;;5065673;28;20043;-83
2023/04/01 03:31:20;;;;;;;7.78;2.03;;;10.10;99.90;;;;;;5065544;28;20426;-81
2023/04/01 03:33:45;;;;;;;2.83;2.28;;;10.10;99.90;;;;;;5065928;28;20045;-84
2023/04/01 03:36:12;;;;;;;4.15;3.10;;;10.10;99.90;;;;;;5064808;28;20037;-82
2023/04/01 03:38:39;;;;;;;3.40;2.58;;;10.10;99.90;;;;;;5065681;28;20055;-81
2023/04/01 03:41:05;;;;;;;3.67;2.30;;;10.10;99.90;;;;;;5046410;28;20130;-83
2023/04/01 03:43:30;;;;;;;4.05;3.03;;;10.10;99.90;;;;;;5065445;28;20325;-81
2023/04/01 03:45:57;;;;;;;4.32;2.92;;;10.10;99.90;;;;;;5065888;28;20071;-79
2023/04/01 03:48:25;;;;;;;3.45;3.15;;;10.10;99.90;;;;;;5048209;28;20102;-83
2023/04/01 03:50:50;;;;;;;4.00;2.85;;;10.10;99.90;;;;;;5045160;28;20136;-80
2023/04/01 03:53:16;;;;;;;3.30;2.33;;;10.00;99.90;;;;;;5027273;28;20136;-81
2023/04/01 03:55:42;;;;;;;3.95;2.63;;;10.00;99.90;;;;;;5027360;28;20458;-82
2023/04/01 03:58:08;;;;;;;3.08;2.22;;;10.00;99.90;;;;;;5047279;28;20048;-81
2023/04/01 04:00:33;;;;;;;3.58;2.63;;;10.00;99.90;;;;;;5065405;28;20079;-83
2023/04/01 04:03:00;;;;;;;5.45;3.08;;;10.00;99.90;;;;;;5065492;28;20055;-81
2023/04/01 04:05:26;;;;;;;5.55;2.72;;;10.00;99.90;;;;;;5065219;28;20521;-83
2023/04/01 04:07:52;;;;;;;4.40;3.17;;;10.00;99.90;;;;;;5064485;28;20056;-82
2023/04/01 04:10:18;;;;;;;4.43;3.20;;;10.00;99.90;;;;;;5064081;28;20116;-82
2023/04/01 04:12:44;;;;;;;5.32;3.20;;;10.00;99.90;;;;;;5064927;28;20037;-83
2023/04/01 04:15:10;;;;;;;4.35;2.42;;;10.00;99.90;;;;;;5064408;28;20098;-80
2023/04/01 04:17:36;;;;;;;3.75;3.08;;;10.00;99.90;;;;;;5065044;28;20045;-83
2023/04/01 04:20:02;;;;;;;4.78;2.65;;;10.00;99.90;;;;;;5046818;28;20116;-80
2023/04/01 04:22:28;;;;;;;3.92;3.20;;;10.00;99.90;;;;;;5064869;28;20609;-81
2023/04/01 04:24:53;;;;;;;3.50;2.25;;;10.00;99.90;;;;;;5064030;28;20116;-83
2023/04/01 04:27:19;;;;;;;6.60;3.83;;;10.00;99.90;;;;;;5030087;28;20470;-79
2023/04/01 04:29:45;;;;;;;4.20;3.80;;;10.00;99.90;;;;;;5065006;28;20047;-82
2023/04/01 04:32:10;;;;;;;4.38;2.97;;;10.00;99.90;;;;;;5064241;28;20079;-78
2023/04/01 04:34:36;;;;;;;4.93;3.63;;;10.00;99.90;;;;;;5064831;28;20076;-83
2023/04/01 04:37:02;;;;;;;3.80;3.42;;;10.00;99.90;;;;;;5063649;28;20080;-83
2023/04/01 04:39:27;;;;;;;4.70;3.22;;;10.00;99.90;;;;;;5064128;28;20052;-81
2023/04/01 04:41:53;;;;;;;5.35;3.40;;;10.00;99.90;;;;;;5064520;28;20040;-82
2023/04/01 04:44:19;;;;;;;7.22;3.72;;;10.00;99.90;;;;;;5046469;28;20545;-80
2023/04/01 04:46:44;;;;;;;4.78;3.10;;;10.00;99.90;;;;;;5046361;28;20105;-82
2023/04/01 04:49:10;;;;;;;3.83;2.90;;;10.00;99.90;;;;;;5064284;28;20048;-81
2023/04/01 04:51:36;;;;;;;5.68;4.10;;;10.00;99.90;;;;;;5046118;28;20041;-83
2023/04/01 04:54:03;;;;;;;6.78;3.65;;;10.00;99.90;;;;;;5062616;28;20051;-83
2023/04/01 04:56:28;;;;;;;3.38;3.08;;;10.00;99.90;;;;;;5046887;28;20119;-80
2023/04/01 04:58:54;;;;;;;5.63;3.15;;;10.00;99.90;;;;;;5046453;28;20155;-83
2023/04/01 05:01:20;;;;;;;5.53;3.28;;;10.00;99.90;;;;;;5063645;28;20044;-80
2023/04/01 05:03:46;;;;;;;6.55;3.97;;;10.00;99.90;;;;;;5064414;28;20509;-80
2023/04/01 05:06:17;;;;;;;6.75;3.05;;;10.00;99.90;;;;;;5058701;28;20115;-84
2023/04/01 05:08:44;;;;;;;5.35;3.63;;;10.00;99.90;;;;;;5058584;28;20049;-83
2023/04/01 05:11:13;;;;;;;7.35;3.78;;;10.00;99.90;;;;;;5063038;28;20117;-81
2023/04/01 05:13:39;;;;;;;6.20;3.72;;;10.00;99.90;;;;;;5064214;28;20043;-81
2023/04/01 05:16:08;;;;;;;7.68;4.28;;;10.00;99.90;;;;;;5063037;28;20786;-84
2023/04/01 05:18:34;;;;;;;5.70;4.35;;;10.00;99.90;;;;;;5045924;28;20550;-81
2023/04/01 05:20:59;;;;;;;7.30;3.83;;;10.00;99.90;;;;;;5046249;28;20132;-78
2023/04/01 05:23:25;;;;;;;7.13;3.83;;;10.00;99.90;;;;;;5064128;28;20490;-83
2023/04/01 05:25:52;;;;;;;6.93;4.75;;;10.00;99.90;;;;;;5063186;28;20076;-79
2023/04/01 05:28:19;;;;;;;5.00;3.70;;;10.00;99.90;;;;;;5064097;28;20049;-82
2023/04/01 05:30:45;;;;;;;8.20;4.65;;;10.00;99.90;;;;;;5063975;28;20419;-77
2023/04/01 05:33:12;;;;;;;7.28;4.18;;;10.00;99.90;;;;;;5046014;28;21053;-83
2023/04/01 05:35:38;;;;;;;4.70;3.72;;;10.00;99.90;;;;;;5045921;28;20658;-82
2023/04/01 05:38:04;;;;;;;7.00;4.68;;;10.00;99.90;;;;;;5063533;28;20040;-82
2023/04/01 05:40:30;;;;;;;6.00;4.80;;;10.00;99.90;;;;;;5063052;28;20513;-83
2023/04/01 05:42:56;;;;;;;7.65;4.25;;;10.00;99.90;;;;;;5046404;28;20040;-83
2023/04/01 05:45:22;;;;;;;8.18;4.43;;;10.00;99.90;;;;;;5063108;28;20033;-80
2023/04/01 05:47:47;;;;;;;5.22;4.72;;;10.00;99.90;;;;;;5063640;28;20135;-84
2023/04/01 05:50:13;;;;;;;5.75;4.20;;;10.00;99.90;;;;;;5045797;28;20414;-80
2023/04/01 05:52:39;;;;;;;6.60;4.95;;;10.00;99.90;;;;;;5061565;28;20115;-80
2023/04/01 05:55:05;;;;;;;6.82;4.55;;;10.00;99.90;;;;;;5007907;28;20068;-84
2023/04/01 05:57:31;;;;;;;6.65;4.43;;;10.00;99.90;;;;;;5027054;28;20483;-78
2023/04/01 05:59:57;;;;;;;8.27;5.80;;;10.00;99.90;;;;;;5063894;28;20044;-83
2023/04/01 06:02:23;;;;;;;4.38;3.13;;;10.00;99.90;;;;;;5044916;28;20517;-80
2023/04/01 06:04:49;;;;;;;6.20;3.40;;;10.00;99.90;;;;;;5063720;28;20143;-83
2023/04/01 06:07:17;;;;;;;6.20;3.45;;;10.00;99.90;;;;;;5045513;28;20052;-83
2023/04/01 06:09:44;;;;;;;6.95;4.45;;;10.00;99.90;;;;;;5044597;28;20048;-81
2023/04/01 06:12:24;;;;;;;5.53;4.18;;;10.00;99.90;;;;;;5063252;28;20044;-84
2023/04/01 06:15:12;;;;;;;5.60;4.22;;;10.00;99.90;;;;;;5028145;28;20063;-83
2023/04/01 06:17:44;;;;;;;6.70;4.15;;;10.00;99.90;;;;;;5045208;28;20044;-83
2023/04/01 06:20:23;;;;;;;6.00;5.35;;;10.00;99.90;;;;;;5045373;28;20182;-78
2023/04/01 06:23:11;;;;;;;7.03;4.07;;;10.00;99.90;;;;;;5044803;28;20044;-84
2023/04/01 06:25:52;;;;;;;5.95;3.00;;;10.00;99.90;;;;;;5021761;28;20079;-81
2023/04/01 06:28:49;;;;;;;8.20;3.65;;;10.00;99.90;;;;;;5065810;28;20044;-79
2023/04/01 06:31:52;;;;;;;6.43;4.95;;;10.00;99.90;;;;;;5045431;28;20080;-80
2023/04/01 06:34:36;;;;;;;8.32;4.07;;;10.00;99.90;;;;;;5018800;28;20199;-80
2023/04/01 06:37:28;;;;;;;7.03;4.72;;;10.00;99.90;;;;;;5066030;28;20044;-77
2023/04/01 06:40:06;;;;;;;4.60;3.85;;;10.00;99.90;;;;;;5047743;28;20084;-83
2023/04/01 06:42:41;;;;;;;5.07;3.97;;;10.00;99.90;;;;;;5047833;28;20555;-84
2023/04/01 06:45:30;;;;;;;5.65;4.15;;;10.00;99.90;;;;;;5058972;28;20076;-83
2023/04/01 06:48:17;;;;;;;6.47;3.85;;;10.00;99.90;;;;;;5053027;28;20513;-79
2023/04/01 06:50:57;;;;;;;3.35;3.03;;;10.00;99.90;;;;;;5065403;28;20048;-81
2023/04/01 06:53:38;;;;;;;4.10;3.42;;;10.00;99.90;;;;;;5043913;28;20492;-84
2023/04/01 06:56:11;;;;;;;7.40;3.83;;;10.00;99.90;;;;;;5057238;28;20593;-79
2023/04/01 06:58:57;;;;;;;5.32;3.33;;;10.10;99.90;;;;;;5066326;28;20414;-81
2023/04/01 07:01:33;;;;;;;5.30;4.60;;;10.10;99.90;;;;;;5055380;28;20079;-78
2023/04/01 07:04:05;;;;;;;3.97;2.88;;;10.10;99.90;;;;;;5044267;28;20119;-80
2023/04/01 07:06:36;;;;;;;6.00;4.30;;;10.10;99.90;;;;;;5016372;28;20099;-77
2023/04/01 07:09:08;;;;;;;7.25;3.25;;;10.10;99.90;;;;;;5046429;28;20915;-78
2023/04/01 07:11:38;;;;;;;5.00;3.75;;;10.10;99.90;;;;;;5065418;28;20032;-80
2023/04/01 07:14:30;;;;;;;5.68;4.10;;;10.10;99.90;;;;;;5046760;28;20048;-77
2023/04/01 07:17:14;;;;;;;7.05;4.70;;;10.10;99.90;;;;;;5028569;28;20574;-80
2023/04/01 07:19:53;;;;;;;5.50;4.22;;;10.10;99.90;;;;;;5065912;28;20051;-77
2023/04/01 07:22:37;;;;;;;6.78;4.53;;;10.10;99.90;;;;;;5046885;28;20723;-79
2023/04/01 07:25:14;;;;;;;5.53;4.93;;;10.10;99.90;;;;;;5026346;28;20051;-79
2023/04/01 07:27:42;;;;;;;6.45;4.43;;;10.20;99.90;;;;;;5035490;28;20051;-80
2023/04/01 07:30:20;;;;;;;7.82;4.47;;;10.10;99.90;;;;;;5046828;28;20033;-82
2023/04/01 07:33:05;;;;;;;8.18;4.95;;;10.20;99.90;;;;;;5052994;28;20048;-77
2023/04/01 07:35:56;;;;;;;8.68;5.47;;;10.20;99.90;;;;;;5027589;28;20053;-76
2023/04/01 07:38:34;;;;;;;8.23;4.35;;;10.20;99.90;;;;;;5044481;28;20610;-79
2023/04/01 07:41:27;;;;;;;7.28;4.65;;;10.20;99.90;;;;;;5044054;28;20524;-78
2023/04/01 07:44:20;;;;;;;7.90;4.63;;;10.20;99.90;;;;;;5027392;28;20033;-80
2023/04/01 07:46:59;;;;;;;8.02;4.18;;;10.20;99.90;;;;;;5048025;28;20044;-78
2023/04/01 07:50:02;;;;;;;7.97;5.10;;;10.30;99.90;;;;;;5028410;28;20052;-79
2023/04/01 07:52:55;;;;;;;11.30;5.47;;;10.30;99.90;;;;;;5047951;28;20046;-79
2023/04/01 07:55:44;;;;;;;7.65;4.57;;;10.30;99.90;;;;;;5062569;28;20397;-78
2023/04/01 07:58:22;;;;;;;5.65;5.07;;;10.40;99.90;;;;;;5030621;28;20107;-79
2023/04/01 08:00:56;;;;;;;9.85;5.15;;;10.40;99.90;;;;;;5049199;28;20082;-79
2023/04/01 08:03:33;;;;;;;12.63;5.88;;;10.40;99.90;;;;;;5053966;28;20047;-79
2023/04/01 08:06:10;;;;;;;4.72;4.15;;;10.50;99.90;;;;;;5060234;28;20503;-82
2023/04/01 08:09:19;;;;;;;13.35;5.38;;;10.50;99.90;;;;;;5044912;28;20096;-79
2023/04/01 08:11:59;;;;;;;8.30;5.10;;;10.50;99.90;;;;;;5031777;28;20056;-80
2023/04/01 08:14:39;;;;;;;11.57;7.35;;;10.60;99.90;;;;;;5044062;28;20048;-79
2023/04/01 08:17:19;;;;;;;7.57;4.35;;;10.60;99.90;;;;;;5037549;28;20052;-80
2023/04/01 08:19:50;;;;;;;7.32;4.32;;;10.60;99.90;;;;;;5046718;28;20047;-79
2023/04/01 08:22:23;;;;;;;10.45;5.70;;;10.60;99.90;;;;;;5045460;28;20141;-79
2023/04/01 08:24:50;;;;;;;5.57;4.75;;;10.60;99.90;;;;;;5029089;28;20186;-79
2023/04/01 08:27:24;;;;;;;6.90;4.35;;;10.60;99.90;;;;;;5061611;28;20040;-83
2023/04/01 08:30:01;;;;;;;5.55;3.28;;;10.60;99.90;;;;;;5037968;28;20037;-82
2023/04/01 08:32:37;;;;;;;5.05;2.90;;;10.50;99.90;;;;;;5034744;28;20056;-82
2023/04/01 08:35:30;;;;;;;5.78;3.67;;;10.50;99.90;;;;;;5035149;28;20051;-85
2023/04/01 08:38:00;;;;;;;4.88;3.38;;;10.50;99.90;;;;;;5047747;28;20044;-82
2023/04/01 08:40:47;;;;;;;7.00;3.42;;;10.60;99.90;;;;;;5054114;28;20051;-78
2023/04/01 08:43:22;;;;;;;4.07;3.03;;;10.60;99.90;;;;;;5006651;28;20087;-78
2023/04/01 08:46:06;;;;;;;6.95;2.70;;;10.60;99.90;;;;;;5023607;28;20056;-81
2023/04/01 08:48:51;;;;;;;2.92;2.40;;;10.60;99.90;;;;;;5025119;28;20048;-78
2023/04/01 08:51:37;;;;;;;11.40;3.22;;;10.60;99.90;;;;;;5005133;28;20048;-81
2023/04/01 08:54:09;;;;;;;7.25;3.58;;;10.70;99.90;;;;;;5025299;28;20406;-80
2023/04/01 08:56:38;;;;;;;3.67;2.00;;;10.70;99.90;;;;;;5057320;28;20036;-85
2023/04/01 08:59:29;;;;;;;3.70;2.15;;;10.70;99.90;;;;;;5062663;28;20051;-79
2023/04/01 09:02:04;;;;;;;5.35;3.10;;;10.80;99.90;;;;;;4978806;28;20057;-81
2023/04/01 09:04:51;;;;;;;2.90;2.70;;;10.80;99.90;;;;;;5040574;28;20076;-77
2023/04/01 09:07:42;;;;;;;1.42;1.10;;;10.90;99.90;;;;;;5062317;28;20048;-81
2023/04/01 09:10:46;;;;;;;2.45;2.00;;;10.90;99.90;;;;;;5057231;28;20067;-80
2023/04/01 09:13:43;;;;;;;2.80;1.45;;;11.00;99.90;;;;;;5056891;28;20609;-79
2023/04/01 09:16:30;;;;;;;3.20;1.63;;;11.00;99.90;;;;;;5041471;28;20561;-82
2023/04/01 09:19:17;;;;;;;3.75;1.88;;;11.00;99.90;;;;;;5035651;28;20325;-85
2023/04/01 09:22:01;;;;;;;4.18;1.83;;;11.10;99.90;;;;;;5059642;28;20047;-79
2023/04/01 09:24:38;;;;;;;3.92;2.13;;;11.10;99.90;;;;;;5049588;28;20060;-81
2023/04/01 09:27:05;;;;;;;3.20;2.30;;;11.10;99.90;;;;;;5045185;28;20139;-85
2023/04/01 09:29:52;;;;;;;2.83;1.90;;;11.10;99.90;;;;;;5043596;28;20049;-83
2023/04/01 09:33:11;;;;;;;3.17;1.10;;;11.20;99.90;;;;;;5044574;28;20056;-77
2023/04/01 09:35:56;;;;;;;2.63;2.10;;;11.20;99.90;;;;;;5008176;28;20049;-82
2023/04/01 09:38:22;;;;;;;2.97;1.33;;;11.20;99.90;;;;;;5040861;28;20051;-80
2023/04/01 09:41:03;;;;;;;3.47;1.40;;;11.20;99.90;;;;;;5059322;28;20051;-82
2023/04/01 09:43:43;;;;;;;1.90;1.63;;;11.20;99.90;;;;;;5010012;28;20053;-82
2023/04/01 09:47:00;;;;;;;0.63;0.60;;;11.30;99.90;;;;;;5040575;28;20167;-82
2023/04/01 09:49:28;;;;;;;2.10;0.95;;;11.20;99.90;;;;;;5022769;28;20053;-80
2023/04/01 09:52:13;;;;;;;1.25;0.90;;;11.20;99.90;;;;;;5024476;28;20087;-81
2023/04/01 09:54:59;;;;;;;2.00;0.93;;;11.20;99.90;;;;;;5036244;28;20119;-79
2023/04/01 09:57:40;;;;;;;1.58;0.90;;;11.20;99.90;;;;;;5032291;28;20534;-81
2023/04/01 10:00:10;;;;;;;1.58;1.02;;;11.20;99.90;;;;;;5039344;28;20052;-84
2023/04/01 10:03:22;;;;;;;2.08;1.35;;;11.20;99.90;;;;;;5067179;28;20119;-83
2023/04/01 10:06:32;;;;;;;1.95;1.02;;;11.20;99.90;;;;;;5049167;28;20061;-83
2023/04/01 10:09:30;;;;;;;1.20;1.10;;;11.20;99.90;;;;;;5056277;28;20453;-92
2023/04/01 10:12:01;;;;;;;2.63;1.00;;;11.20;99.90;;;;;;5049534;28;20102;-78
2023/04/01 10:15:16;;;;;;;1.42;1.05;;;11.10;99.90;;;;;;5048643;28;20044;-80
2023/04/01 10:18:06;;;;;;;3.10;1.75;;;11.10;99.90;;;;;;4978152;28;20050;-78
2023/04/01 10:20:59;;;;;;;2.00;0.93;;;11.10;99.90;;;;;;5036198;28;20093;-80
2023/04/01 10:24:03;;;;;;;1.75;1.63;;;11.10;99.90;;;;;;5043339;28;20033;-76
2023/04/01 10:26:49;;;;;;;1.55;1.02;;;11.10;99.90;;;;;;4997387;28;20045;-76
2023/04/01 10:29:28;;;;;;;2.80;1.25;;;11.10;99.90;;;;;;5049167;28;20135;-76
2023/04/01 10:31:59;;;;;;;0.80;0.80;;;11.00;99.90;;;;;;5065265;28;20562;-77
2023/04/01 10:34:53;;;;;;;1.63;1.17;;;11.00;99.90;;;;;;5032257;28;20127;-78
2023/04/01 10:37:54;;;;;;;2.28;1.60;;;11.00;99.90;;;;;;5063265;28;20568;-78
2023/04/01 10:40:33;;;;;;;3.28;1.38;;;10.90;99.90;;;;;;5027544;28;20113;-79
2023/04/01 10:43:09;;;;;;;2.47;1.10;;;10.90;99.90;;;;;;5027721;28;20048;-79
2023/04/01 10:46:00;;;;;;;2.03;1.38;;;10.80;99.90;;;;;;5029505;28;20345;-79
2023/04/01 10:49:22;;;;;;;1.85;1.15;;;10.80;99.90;;;;;;5052435;28;20040;-76
2023/04/01 10:51:56;;;;;;;3.05;1.80;;;10.80;99.90;;;;;;4942854;28;20047;-79
2023/04/01 10:54:33;;;;;;;1.88;1.75;;;10.80;99.90;;;;;;4943013;28;20059;-80
2023/04/01 10:57:37;;;;;;;2.20;0.98;;;10.70;99.90;;;;;;5007124;28;20091;-77
2023/04/01 11:00:08;;;;;;;1.17;1.02;;;10.70;99.90;;;;;;5042634;28;20052;-77
2023/04/01 11:02:52;;;;;;;1.85;1.13;;;10.80;99.90;;;;;;5064764;28;20805;-79
2023/04/01 11:05:55;;;;;;;1.48;0.95;;;10.80;99.90;;;;;;5065815;28;20419;-79
2023/04/01 11:08:27;;;;;;;;;;;10.80;99.90;;;;;;5035532;28;20127;-79
2023/04/01 11:11:01;;;;;;;1.92;1.73;;;10.90;99.90;;;;;;5055119;28;19955;-79
2023/04/01 11:13:39;;;;;;;1.77;1.08;;;10.90;99.90;;;;;;5025537;28;20040;-79
2023/04/01 11:16:17;;;;;;;1.70;1.50;;;11.00;99.90;;;;;;5045646;28;20049;-80
2023/04/01 11:19:35;;;;;;;2.95;1.27;;;10.90;99.90;;;;;;5045186;28;20124;-76
2023/04/01 11:22:25;;;;;;;1.10;0.73;;;10.90;99.90;;;;;;5056868;28;20036;-82
2023/04/01 11:24:57;;;;;;;2.45;0.73;;;10.90;99.90;;;;;;5063803;28;20182;-80
2023/04/01 11:28:06;;;;;;;1.70;1.60;;;10.90;99.90;;;;;;5047468;28;20135;-80
2023/04/01 11:30:49;;;;;;;0.98;0.82;;;10.90;99.90;;;;;;5046972;28;20050;-80
2023/04/01 11:33:38;;;;;;;0.75;0.70;;;10.80;99.90;;;;;;5063747;28;20124;-79
2023/04/01 11:36:10;;;;;;;1.50;0.75;;;10.80;99.90;;;;;;5044437;28;20052;-78
2023/04/01 11:39:02;;;;;;;1.98;1.58;;;10.90;99.90;;;;;;5060748;28;20382;-78
2023/04/01 11:41:34;;;;;;;;;;;10.80;99.90;;;;;;5056658;28;20036;-79
2023/04/01 11:44:21;;;;;;;1.05;1.05;;;10.90;99.90;;;;;;5046541;28;19931;-79
2023/04/01 11:47:00;;;;;;;1.80;1.70;;;10.90;99.90;;;;;;5033143;28;20387;-79
2023/04/01 11:49:40;;;;;;;2.05;0.93;;;10.90;99.90;;;;;;5064044;28;20075;-78
2023/04/01 11:52:20;;;;;;;1.90;1.38;;;10.90;99.90;;;;;;5063319;28;20281;-79
2023/04/01 11:55:04;;;;;;;0.50;0.50;;;10.90;99.90;;;;;;5061470;28;20036;-77
2023/04/01 11:57:55;;;;;;;1.70;1.17;;;10.90;99.90;;;;;;5046486;28;20040;-79
2023/04/01 12:00:42;;;;;;;1.23;0.80;;;10.90;99.90;;;;;;5059032;28;20075;-78
2023/04/01 12:03:29;;;;;;;1.60;1.20;;;10.90;99.90;;;;;;5039333;28;20037;-78
2023/04/01 12:06:02;;;;;;;0.95;0.80;;;10.90;99.90;;;;;;5044842;28;20060;-77
2023/04/01 12:08:33;;;;;;;1.25;0.95;;;10.90;99.90;;;;;;5045882;28;20506;-77
2023/04/01 12:11:04;;;;;;;0.70;0.70;;;11.00;99.90;;;;;;5046163;28;20053;-76
2023/04/01 12:13:45;;;;;;;2.15;0.93;;;11.00;99.90;;;;;;5062840;28;20076;-78
2023/04/01 12:16:31;;;;;;;1.95;1.33;;;11.00;99.90;;;;;;5063429;28;20048;-76
2023/04/01 12:19:14;;;;;;;1.45;0.70;;;11.00;99.90;;;;;;5064604;28;20048;-76
2023/04/01 12:21:49;;;;;;;;;;;11.00;99.90;;;;;;5063846;28;20079;-76
2023/04/01 12:24:46;;;;;;;1.85;0.93;;;11.10;99.90;;;;;;5027326;28;19920;-76
2023/04/01 12:27:50;;;;;;;2.13;1.40;;;11.00;99.90;;;;;;5043703;28;20070;-77
2023/04/01 12:30:18;;;;;;;1.17;0.70;;;11.00;99.90;;;;;;5040466;28;20049;-76
2023/04/01 12:33:05;;;;;;;0.40;0.40;;;11.00;99.90;;;;;;5062600;28;20048;-77
2023/04/01 12:36:00;;;;;;;0.73;0.55;;;11.00;99.90;;;;;;5063808;28;20064;-77
2023/04/01 12:38:31;;;;;;;0.95;0.70;;;11.00;99.90;;;;;;5028305;28;20044;-76
2023/04/01 12:41:24;;;;;;;0.70;0.70;;;10.90;99.90;;;;;;5064133;28;20131;-76
2023/04/01 12:44:33;;;;;;;0.63;0.63;;;10.90;99.90;;;;;;5063438;28;20054;-77
2023/04/01 12:47:05;;;;;;;1.45;1.35;;;10.90;99.90;;;;;;5058569;28;20056;-76
2023/04/01 12:49:48;;;;;;;1.57;0.90;;;10.90;99.90;;;;;;5043823;28;20139;-77
2023/04/01 12:52:32;;;;;;;0.70;0.70;;;10.90;99.90;;;;;;5043260;28;20052;-75
2023/04/01 12:55:31;;;;;;;1.08;0.50;;;10.90;99.90;;;;;;5008959;28;20132;-76
2023/04/01 12:58:18;;;;;;;0.93;0.90;;;10.90;99.90;;;;;;5006244;28;20057;-76
2023/04/01 13:01:41;;;;;;;0.82;0.70;;;10.90;99.90;;;;;;5062629;28;20048;-76
2023/04/01 13:04:06;;;;;;;0.68;0.68;;;10.90;99.90;;;;;;4962167;28;20054;-77
2023/04/01 13:06:41;;;;;;;0.68;0.63;;;10.90;99.90;;;;;;4954503;28;20069;-77
2023/04/01 13:09:28;;;;;;;0.43;0.43;;;10.90;99.90;;;;;;5033150;28;20056;-76
2023/04/01 13:12:05;;;;;;;1.15;0.77;;;10.90;99.90;;;;;;5025971;28;20093;-76
2023/04/01 13:14:51;;;;;;;2.05;1.33;;;10.90;99.90;;;;;;5008781;28;20088;-77
2023/04/01 13:17:26;;;;;;;0.82;0.68;;;10.80;99.90;;;;;;5024522;28;20539;-75
2023/04/01 13:20:07;;;;;;;0.98;0.63;;;10.80;99.90;;;;;;5025498;28;20112;-77
2023/04/01 13:23:10;;;;;;;1.27;1.05;;;10.70;99.90;;;;;;5029664;28;20577;-77
2023/04/01 13:26:13;;;;;;;1.00;1.00;;;10.70;99.90;;;;;;5045099;28;20699;-77
2023/04/01 13:28:59;;;;;;;1.38;0.68;;;10.70;99.90;;;;;;5063787;28;20036;-77
2023/04/01 13:31:41;;;;;;;0.73;0.55;;;10.60;99.90;;;;;;5063879;28;20125;-77
2023/04/01 13:34:36;;;;;;;1.25;0.73;;;10.60;99.90;;;;;;5062791;28;20040;-76
2023/04/01 13:37:13;;;;;;;0.93;0.77;;;10.60;99.90;;;;;;5043687;28;20618;-76